createdAt,value
2022-10-12T00:37:58.442Z,18.00
2022-10-12T00:40:48.193Z,17.90
2022-10-12T00:43:42.019Z,17.90
2022-10-12T00:46:34.904Z,17.80
2022-10-12T00:49:27.366Z,17.80
2022-10-12T00:55:10.615Z,17.60
2022-10-12T00:58:00.321Z,17.50
2022-10-12T01:00:49.667Z,17.40
2022-10-12T01:03:39.231Z,17.40
2022-10-12T01:06:28.299Z,17.50
2022-10-12T01:09:17.320Z,17.50
2022-10-12T01:12:09.433Z,17.50
2022-10-12T01:14:58.607Z,17.60
2022-10-12T01:17:59.343Z,17.60
2022-10-12T01:21:07.202Z,17.60
2022-10-12T01:24:31.441Z,17.60
2022-10-12T01:27:47.356Z,17.60
2022-10-12T01:30:41.732Z,17.50
2022-10-12T01:33:38.083Z,17.50
2022-10-12T01:36:34.356Z,17.50
2022-10-12T01:39:29.001Z,17.40
2022-10-12T01:42:25.023Z,17.50
2022-10-12T01:45:15.479Z,17.40
2022-10-12T01:48:07.645Z,17.30
2022-10-12T01:51:01.063Z,17.30
2022-10-12T01:53:57.775Z,17.20
2022-10-12T01:56:56.111Z,16.90
2022-10-12T01:59:51.642Z,16.90
2022-10-12T02:02:51.295Z,16.80
2022-10-12T02:05:49.299Z,16.70
2022-10-12T02:08:43.808Z,16.70
2022-10-12T02:11:35.386Z,16.70
2022-10-12T02:14:29.806Z,16.80
2022-10-12T02:17:21.744Z,16.80
2022-10-12T02:20:15.683Z,16.60
2022-10-12T02:23:07.003Z,16.20
2022-10-12T02:25:58.116Z,16.00
2022-10-12T02:28:47.461Z,16.00
2022-10-12T02:31:41.609Z,16.00
2022-10-12T02:37:31.176Z,16.30
2022-10-12T02:40:28.545Z,16.50
2022-10-12T05:16:02.163Z,16.60
2022-10-12T05:24:29.708Z,15.60
2022-10-12T06:24:19.934Z,15.50
2022-10-12T06:27:09.782Z,15.60
2022-10-12T06:29:58.896Z,15.50
2022-10-12T06:32:48.238Z,15.60
2022-10-12T06:35:37.791Z,15.50
2022-10-12T06:38:28.999Z,15.60
2022-10-12T06:41:18.847Z,15.50
2022-10-12T06:44:08.648Z,15.50
2022-10-12T06:46:57.530Z,15.40
2022-10-12T06:49:46.831Z,15.40
2022-10-12T07:01:05.729Z,15.60
2022-10-12T07:04:00.404Z,15.70
2022-10-12T07:35:07.233Z,16.60
2022-10-12T07:37:55.920Z,16.80
2022-10-12T07:40:44.949Z,17.00
2022-10-12T07:43:34.087Z,17.00
2022-10-12T07:46:25.515Z,17.10
2022-10-12T07:49:15.508Z,17.10
2022-10-12T07:52:04.500Z,17.30
2022-10-12T07:54:53.951Z,17.40
2022-10-12T07:57:44.387Z,17.40
2022-10-12T08:00:33.793Z,17.40
2022-10-12T08:03:24.794Z,17.30
2022-10-12T08:06:15.330Z,17.10
2022-10-12T08:09:04.743Z,17.20
2022-10-12T08:11:54.149Z,17.40
2022-10-12T08:14:43.393Z,17.70
2022-10-12T08:17:32.114Z,17.80
2022-10-12T08:20:22.622Z,17.90
2022-10-12T08:23:11.687Z,18.00
2022-10-12T08:26:00.412Z,18.20
2022-10-12T08:28:49.960Z,18.30
2022-10-12T08:31:38.667Z,18.40
2022-10-12T08:34:27.548Z,18.50
2022-10-12T08:37:18.059Z,18.70
2022-10-12T08:40:08.503Z,18.90
2022-10-12T08:43:05.747Z,18.90
2022-10-12T08:45:57.345Z,18.90
2022-10-12T08:48:51.990Z,19.00
2022-10-12T08:51:48.750Z,19.00
2022-10-12T08:54:44.160Z,19.10
2022-10-12T08:57:34.937Z,19.10
2022-10-12T09:00:24.932Z,19.20
2022-10-12T09:03:25.111Z,19.30
2022-10-12T09:06:18.667Z,19.30
2022-10-12T09:09:20.585Z,19.40
2022-10-12T09:12:25.392Z,19.50
2022-10-12T09:15:17.962Z,19.60
2022-10-12T09:18:16.571Z,19.70
2022-10-12T09:21:07.665Z,19.80
2022-10-12T09:23:57.943Z,19.90
2022-10-12T09:26:49.855Z,19.90
2022-10-12T09:29:40.646Z,20.10
2022-10-12T09:32:52.317Z,20.20
2022-10-12T09:35:41.941Z,20.20
2022-10-12T09:38:31.098Z,20.20
2022-10-12T10:15:53.816Z,21.90
2022-10-12T10:18:45.505Z,21.80
2022-10-12T10:21:38.464Z,21.90
2022-10-12T10:24:31.127Z,22.00
2022-10-12T10:27:37.847Z,22.00
2022-10-12T10:30:35.003Z,22.00
2022-10-12T10:33:27.811Z,22.20
2022-10-12T10:36:21.594Z,22.30
2022-10-12T10:39:20.890Z,22.40
2022-10-12T10:42:18.387Z,22.50
2022-10-12T10:45:10.106Z,22.70
2022-10-12T10:48:02.811Z,22.70
2022-10-12T10:51:00.368Z,22.70
2022-10-12T10:53:51.911Z,22.80
2022-10-12T10:56:42.907Z,22.90
2022-10-12T10:59:47.110Z,23.00
2022-10-12T11:02:43.260Z,23.30
2022-10-12T11:45:59.857Z,25.20
2022-10-12T11:48:56.281Z,25.10
2022-10-12T11:51:48.320Z,25.10
2022-10-12T11:54:44.611Z,25.20
2022-10-12T11:57:38.595Z,25.20
2022-10-12T12:00:37.763Z,25.20
2022-10-12T12:03:31.689Z,25.20
2022-10-12T12:06:54.840Z,25.20
2022-10-12T12:09:50.132Z,25.30
2022-10-12T12:19:30.624Z,25.80
2022-10-12T12:22:30.055Z,25.90
2022-10-12T12:25:36.912Z,26.10
2022-10-12T12:31:18.665Z,26.30
2022-10-12T12:34:14.198Z,26.40
2022-10-12T12:37:14.463Z,26.40
2022-10-12T12:40:06.109Z,26.50
2022-10-12T12:43:15.637Z,26.50
2022-10-12T12:46:05.970Z,26.40
2022-10-12T12:49:07.851Z,26.50
2022-10-12T12:52:00.001Z,26.60
2022-10-12T12:55:30.470Z,26.60
2022-10-12T12:58:38.640Z,26.60
2022-10-12T13:01:49.338Z,26.70
2022-10-12T13:04:53.647Z,26.80
2022-10-12T13:08:08.774Z,26.80
2022-10-12T13:11:17.632Z,26.80
2022-10-12T13:14:22.523Z,26.70
2022-10-12T13:17:34.376Z,26.60
2022-10-12T13:20:26.478Z,26.50
2022-10-12T13:23:19.351Z,26.40
2022-10-12T13:26:10.719Z,26.40
2022-10-12T13:29:00.914Z,26.00
2022-10-12T13:31:54.115Z,25.80
2022-10-12T13:34:46.690Z,25.70
2022-10-12T13:37:36.470Z,25.80
2022-10-12T13:40:34.144Z,25.70
2022-10-12T13:43:30.709Z,25.80
2022-10-12T13:46:38.510Z,25.90
2022-10-12T13:49:31.739Z,26.00
2022-10-12T13:52:28.386Z,25.90
2022-10-12T13:55:26.495Z,26.00
2022-10-12T13:58:24.659Z,25.90
2022-10-12T14:01:14.424Z,25.80
2022-10-12T14:04:09.698Z,25.80
2022-10-12T14:07:03.382Z,25.70
2022-10-12T14:09:56.869Z,25.80
2022-10-12T14:12:46.944Z,25.80
2022-10-12T14:15:38.518Z,25.90
2022-10-12T14:18:39.680Z,25.90
2022-10-12T14:24:26.659Z,25.70
2022-10-12T14:27:24.364Z,25.50
2022-10-12T14:30:20.621Z,25.40
2022-10-12T14:33:23.302Z,25.30
2022-10-12T14:36:17.029Z,25.20
2022-10-12T14:39:14.255Z,25.00
2022-10-12T14:42:06.041Z,24.90
2022-10-12T14:44:55.646Z,24.80
2022-10-12T14:47:44.765Z,24.70
2022-10-12T14:50:34.425Z,24.80
2022-10-12T14:53:29.251Z,24.70
2022-10-12T16:01:27.495Z,22.80
2022-10-12T16:07:08.714Z,22.60
2022-10-12T16:38:16.467Z,22.10
2022-10-12T16:41:12.282Z,22.10
2022-10-12T16:44:02.130Z,21.90
2022-10-12T16:46:51.313Z,21.90
2022-10-12T16:49:40.696Z,21.70
2022-10-12T16:52:29.839Z,21.70
2022-10-12T16:58:10.417Z,21.60
2022-10-12T17:00:59.299Z,21.60
2022-10-12T17:03:48.540Z,21.50
2022-10-12T17:06:37.672Z,21.50
2022-10-12T17:09:27.762Z,21.50
2022-10-12T17:18:00.538Z,21.40
2022-10-12T17:20:52.814Z,21.40
2022-10-12T17:23:42.252Z,21.30
2022-10-12T17:26:32.218Z,21.20
2022-10-12T17:29:21.946Z,21.20
2022-10-12T17:32:15.936Z,21.20
2022-10-12T17:35:05.644Z,21.10
2022-10-12T17:37:56.715Z,21.20
2022-10-12T17:40:45.915Z,21.20
2022-10-12T17:43:34.995Z,21.20
2022-10-12T17:46:24.244Z,21.10
2022-10-12T17:49:17.961Z,21.10
2022-10-12T17:52:08.696Z,21.10
2022-10-12T17:54:58.959Z,21.00
2022-10-12T17:57:48.085Z,21.00
2022-10-12T18:00:37.209Z,20.90
2022-10-12T18:03:28.298Z,20.90
2022-10-12T18:06:22.432Z,20.90
2022-10-12T18:09:12.207Z,20.90
2022-10-12T18:12:02.355Z,20.90
2022-10-12T18:14:53.511Z,20.90
2022-10-12T18:17:42.547Z,20.90
2022-10-12T18:20:31.564Z,20.90
2022-10-12T18:23:22.283Z,20.80
2022-10-12T18:26:14.443Z,20.80
2022-10-12T18:29:05.633Z,20.80
2022-10-12T18:31:55.335Z,20.70
2022-10-12T18:34:44.670Z,20.70
2022-10-12T18:37:34.417Z,20.60
2022-10-12T18:40:29.641Z,20.60
2022-10-12T18:43:18.927Z,20.50
2022-10-12T18:46:08.902Z,20.50
2022-10-12T18:48:58.821Z,20.60
2022-10-12T18:51:50.037Z,20.50
2022-10-12T18:54:39.026Z,20.60
2022-10-12T18:57:32.116Z,20.50
2022-10-12T19:00:22.784Z,20.50
2022-10-12T19:03:14.520Z,20.40
2022-10-12T19:06:09.386Z,20.50
2022-10-12T19:09:05.294Z,20.30
2022-10-12T19:11:54.654Z,20.30
2022-10-12T19:14:45.273Z,20.30
2022-10-12T19:17:34.511Z,20.20
2022-10-12T19:20:23.786Z,20.20
2022-10-12T19:23:12.959Z,20.20
2022-10-12T19:26:06.001Z,20.30
2022-10-12T19:28:57.428Z,19.90
2022-10-12T19:31:52.824Z,20.00
2022-10-12T19:34:42.796Z,20.10
2022-10-12T19:37:32.132Z,20.00
2022-10-12T19:40:22.014Z,19.90
2022-10-12T19:43:11.534Z,19.90
2022-10-12T19:46:04.215Z,19.90
2022-10-12T19:48:56.826Z,19.80
2022-10-12T19:51:46.425Z,19.80
2022-10-12T19:54:36.409Z,19.90
2022-10-12T19:57:26.225Z,19.80
2022-10-12T20:00:23.385Z,19.90
2022-10-12T20:03:12.676Z,19.80
2022-10-12T20:06:06.393Z,19.90
2022-10-12T20:08:56.982Z,19.90
2022-10-12T20:11:46.310Z,19.90
2022-10-12T23:02:42.098Z,18.90
2022-10-12T23:05:31.582Z,18.80
2022-10-12T23:08:20.860Z,18.80
2022-10-12T23:11:13.273Z,18.90
2022-10-12T23:14:04.073Z,18.90
2022-10-12T23:16:53.810Z,18.90
2022-10-12T23:19:43.851Z,18.90
2022-10-12T23:22:32.902Z,18.90
2022-10-12T23:25:22.596Z,18.90
2022-10-12T23:28:11.947Z,18.80
2022-10-12T23:31:04.837Z,18.80
2022-10-12T23:33:58.714Z,18.80
2022-10-12T23:36:47.592Z,18.70
2022-10-12T23:59:25.972Z,17.40
